Hayesville, North Carolina
Current Conditions -  °F | °C
As of 11:55 AM on Saturday 22 Nov 2014 (Local Time) from KRHP Reporting Station
Clear Clear  
Wind Chill: 55°   Ceiling: Unl
Heat Index: 55°   Visibility: 10mi
Dew Point: 28°   Wind: 0mph
Humidity: 36%   Direction: NA
Pressure: 30.39"   Gusts: NA
Location:  35.05°N, 83.82°W
Report Text: KRHP 221655Z AUTO 00000KT 10SM CLR 13/M02 A3039 RMK AO2 T01271020
Loading
Personal Weather Stations






























Interactive Weather Map New forecast layout! Learn more

10-Day Weather Forecast

Advertisements
Track Severe Weather on mobile